createdAt,value
2023-01-21T00:02:12.461Z,98507.25
2023-01-21T00:05:24.605Z,98510.68
2023-01-21T00:08:36.964Z,98506.49
2023-01-21T00:11:49.029Z,98510.42
2023-01-21T00:15:01.079Z,98507.72
2023-01-21T00:18:14.123Z,98501.67
2023-01-21T00:21:26.198Z,98505.60
2023-01-21T00:24:38.308Z,98504.50
2023-01-21T00:27:50.305Z,98504.41
2023-01-21T00:31:08.038Z,98508.62
2023-01-21T00:34:21.576Z,98500.68
2023-01-21T00:37:33.691Z,98504.14
2023-01-21T00:40:45.886Z,98502.45
2023-01-21T00:43:58.622Z,98503.13
2023-01-21T00:47:11.222Z,98504.90
2023-01-21T00:50:24.054Z,98511.04
2023-01-21T00:53:38.323Z,98512.73
2023-01-21T00:56:50.457Z,98519.23
2023-01-21T01:00:02.710Z,98526.31
2023-01-21T01:03:15.018Z,98529.78
2023-01-21T01:06:29.848Z,98529.69
2023-01-21T01:09:42.193Z,98522.59
2023-01-21T01:12:54.152Z,98527.27
2023-01-21T01:16:06.371Z,98521.84
2023-01-21T01:19:19.328Z,98521.09
2023-01-21T01:22:31.338Z,98532.23
2023-01-21T01:25:43.431Z,98520.73
2023-01-21T01:28:56.674Z,98509.38
2023-01-21T01:32:11.760Z,98503.20
2023-01-21T01:35:23.948Z,98500.52
2023-01-21T01:38:36.892Z,98497.05
2023-01-21T01:41:49.272Z,98488.27
2023-01-21T01:45:08.262Z,98485.85
2023-01-21T01:48:24.710Z,98486.77
2023-01-21T01:51:46.792Z,98478.17
2023-01-21T01:55:03.492Z,98475.56
2023-01-21T01:58:20.217Z,98474.80
2023-01-21T02:01:30.805Z,98479.38
2023-01-21T02:04:48.915Z,98484.51
2023-01-21T02:08:01.034Z,98488.98
2023-01-21T02:11:19.390Z,98482.09
2023-01-21T02:14:31.697Z,98483.59
2023-01-21T02:17:58.748Z,98487.12
2023-01-21T02:21:50.616Z,98489.73
2023-01-21T02:25:51.593Z,98483.69
2023-01-21T02:29:57.199Z,98485.61
2023-01-21T02:33:37.605Z,98490.68
2023-01-21T02:37:12.695Z,98475.16
2023-01-21T02:40:32.642Z,98478.72
2023-01-21T02:43:51.951Z,98478.91
2023-01-21T02:47:09.584Z,98471.23
2023-01-21T02:50:25.353Z,98475.55
2023-01-21T02:53:40.471Z,98479.92
2023-01-21T02:56:52.715Z,98472.94
2023-01-21T03:00:06.047Z,98470.33
2023-01-21T03:04:00.245Z,98465.91
2023-01-21T03:07:19.054Z,98471.23
2023-01-21T03:10:36.985Z,98463.49
2023-01-21T03:14:08.837Z,98468.63
2023-01-21T03:17:28.873Z,98468.37
2023-01-21T03:20:44.856Z,98468.47
2023-01-21T03:24:00.061Z,98471.14
2023-01-21T03:27:13.959Z,98471.98
2023-01-21T03:30:29.762Z,98477.12
2023-01-21T03:33:46.893Z,98471.98
2023-01-21T03:37:04.134Z,98467.71
2023-01-21T03:40:29.989Z,98473.84
2023-01-21T03:43:42.245Z,98471.14
2023-01-21T03:47:01.057Z,98470.98
2023-01-21T03:50:19.349Z,98470.13
2023-01-21T03:53:31.996Z,98468.37
2023-01-21T03:56:44.266Z,98470.13
2023-01-21T03:59:56.407Z,98469.22
2023-01-21T04:03:08.581Z,98471.98
2023-01-21T04:06:23.683Z,98477.97
2023-01-21T04:09:36.071Z,98476.46
2023-01-21T04:12:48.227Z,98479.27
2023-01-21T04:16:00.176Z,98475.55
2023-01-21T04:19:12.489Z,98468.47
2023-01-21T04:22:24.795Z,98468.63
2023-01-21T04:25:36.788Z,98465.16
2023-01-21T04:28:49.004Z,98456.41
2023-01-21T04:32:01.251Z,98454.65
2023-01-21T04:35:15.629Z,98454.65
2023-01-21T04:38:27.580Z,98450.34
2023-01-21T04:41:39.601Z,98454.45
2023-01-21T04:44:52.294Z,98448.73
2023-01-21T04:48:04.110Z,98456.51
2023-01-21T04:51:16.259Z,98459.02
2023-01-21T04:54:28.318Z,98464.25
2023-01-21T04:57:42.349Z,98458.27
2023-01-21T05:00:54.897Z,98458.08
2023-01-21T05:04:07.286Z,98465.91
2023-01-21T05:07:21.632Z,98464.05
2023-01-21T05:10:33.529Z,98473.84
2023-01-21T05:13:45.532Z,98467.71
2023-01-21T05:16:57.630Z,98469.28
2023-01-21T05:20:11.275Z,98471.08
2023-01-21T05:23:23.237Z,98450.59
2023-01-21T05:26:35.398Z,98461.19
2023-01-21T05:29:47.710Z,98464.71
2023-01-21T05:33:01.384Z,98469.02
2023-01-21T05:36:15.685Z,98467.91
2023-01-21T05:39:27.715Z,98472.39
2023-01-21T05:42:40.212Z,98474.25
2023-01-21T05:45:52.558Z,98469.12
2023-01-21T05:49:04.831Z,98474.15
2023-01-21T05:52:17.350Z,98468.83
2023-01-21T05:55:29.355Z,98470.63
2023-01-21T05:58:42.019Z,98471.53
2023-01-21T06:01:54.258Z,98471.83
2023-01-21T06:05:06.196Z,98465.75
2023-01-21T06:08:19.101Z,98472.39
2023-01-21T06:11:31.396Z,98485.61
2023-01-21T06:14:43.699Z,98483.95
2023-01-21T06:17:55.805Z,98485.61
2023-01-21T06:21:08.403Z,98493.45
2023-01-21T06:24:24.330Z,98491.59
2023-01-21T06:27:37.365Z,98491.69
2023-01-21T06:30:49.566Z,98490.84
2023-01-21T06:34:01.577Z,98502.99
2023-01-21T06:37:13.672Z,98502.80
2023-01-21T06:40:25.918Z,98500.13
2023-01-21T06:43:38.376Z,98506.16
2023-01-21T06:47:00.699Z,98508.78
2023-01-21T06:50:04.729Z,98520.34
2023-01-21T06:53:16.940Z,98523.70
2023-01-21T06:56:31.516Z,98525.50
2023-01-21T06:59:44.125Z,98530.63
2023-01-21T07:02:58.250Z,98532.23
2023-01-21T07:06:10.999Z,98530.44
2023-01-21T07:09:23.614Z,98541.64
2023-01-21T07:12:35.857Z,98545.36
2023-01-21T07:15:47.976Z,98549.48
2023-01-21T07:19:00.384Z,98545.20
2023-01-21T07:22:12.756Z,98553.05
2023-01-21T07:25:25.644Z,98552.85
2023-01-21T07:28:37.684Z,98562.48
2023-01-21T07:31:49.973Z,98562.30
2023-01-21T07:35:02.296Z,98564.81
2023-01-21T07:38:14.374Z,98562.39
2023-01-21T07:41:28.825Z,98572.00
2023-01-21T07:44:41.461Z,98570.14
2023-01-21T07:47:53.566Z,98570.73
2023-01-21T07:51:06.621Z,98569.23
2023-01-21T07:54:19.938Z,98575.11
2023-01-21T07:57:32.189Z,98576.78
2023-01-21T08:00:44.374Z,98582.95
2023-01-21T08:03:56.440Z,98592.66
2023-01-21T08:07:11.850Z,98583.87
2023-01-21T08:10:25.473Z,98585.47
2023-01-21T08:13:37.472Z,98593.06
2023-01-21T08:16:49.456Z,98594.83
2023-01-21T08:20:01.630Z,98593.31
2023-01-21T08:23:13.635Z,98594.33
2023-01-21T08:26:25.901Z,98594.26
2023-01-21T08:29:38.138Z,98599.95
2023-01-21T08:32:50.237Z,98604.94
2023-01-21T08:36:07.109Z,98602.13
2023-01-21T08:39:21.014Z,98597.75
2023-01-21T08:42:33.202Z,98610.66
2023-01-21T08:45:45.544Z,98604.59
2023-01-21T08:48:57.769Z,98623.05
2023-01-21T08:52:10.456Z,98619.17
2023-01-21T08:55:25.318Z,98624.14
2023-01-21T08:58:39.301Z,98638.88
2023-01-21T09:01:51.451Z,98642.25
2023-01-21T09:05:03.627Z,98642.25
2023-01-21T09:08:15.834Z,98648.14
2023-01-21T09:11:28.228Z,98647.14
2023-01-21T09:14:40.459Z,98639.48
2023-01-21T09:17:52.601Z,98650.86
2023-01-21T09:21:10.916Z,98652.11
2023-01-21T09:24:23.735Z,98655.83
2023-01-21T09:27:35.927Z,98652.96
2023-01-21T09:30:47.911Z,98659.11
2023-01-21T09:34:03.800Z,98655.48
2023-01-21T09:37:15.937Z,98672.28
2023-01-21T09:40:28.199Z,98664.59
2023-01-21T09:43:45.933Z,98666.80
2023-01-21T09:47:05.275Z,98663.23
2023-01-21T09:50:21.939Z,98661.68
2023-01-21T09:53:42.604Z,98669.52
2023-01-21T09:57:23.246Z,98668.32
2023-01-21T10:00:47.644Z,98681.24
2023-01-21T10:04:04.250Z,98674.15
2023-01-21T10:07:20.490Z,98686.97
2023-01-21T10:10:37.919Z,98671.27
2023-01-21T10:14:04.175Z,98681.90
2023-01-21T10:17:22.490Z,98675.55
2023-01-21T10:20:40.495Z,98679.48
2023-01-21T10:23:57.727Z,98681.64
2023-01-21T10:27:12.916Z,98681.05
2023-01-21T10:30:35.645Z,98676.15
2023-01-21T10:33:48.485Z,98672.84
2023-01-21T10:37:10.001Z,98672.84
2023-01-21T10:40:40.884Z,98679.33
2023-01-21T10:43:58.895Z,98681.84
2023-01-21T10:47:18.548Z,98669.11
2023-01-21T10:50:41.599Z,98676.45
2023-01-21T10:53:58.135Z,98681.48
2023-01-21T10:57:16.701Z,98682.83
2023-01-21T11:00:32.572Z,98683.19
2023-01-21T11:03:48.753Z,98684.36
2023-01-21T11:07:06.671Z,98675.33
2023-01-21T11:10:26.572Z,98680.92
2023-01-21T11:13:41.177Z,98693.66
2023-01-21T11:16:55.603Z,98693.16
2023-01-21T11:20:11.179Z,98693.66
2023-01-21T11:23:35.632Z,98688.52
2023-01-21T11:26:55.766Z,98687.11
2023-01-21T11:30:31.450Z,98684.78
2023-01-21T11:33:33.575Z,98687.13
2023-01-21T11:36:59.600Z,98686.94
2023-01-21T11:40:20.928Z,98681.33
2023-01-21T11:43:46.623Z,98674.59
2023-01-21T11:46:59.231Z,98687.42
2023-01-21T11:50:23.272Z,98688.80
2023-01-21T11:53:35.472Z,98693.67
2023-01-21T11:56:51.105Z,98690.30
2023-01-21T12:00:13.186Z,98699.21
2023-01-21T12:03:29.198Z,98703.21
2023-01-21T12:06:41.617Z,98699.28
2023-01-21T12:10:02.352Z,98702.95
2023-01-21T12:13:28.226Z,98687.89
2023-01-21T12:16:44.555Z,98697.22
2023-01-21T12:20:11.574Z,98710.41
2023-01-21T12:23:54.243Z,98708.18
2023-01-21T12:27:15.319Z,98711.81
2023-01-21T12:30:36.307Z,98712.83
2023-01-21T12:34:00.513Z,98721.99
2023-01-21T12:37:18.423Z,98730.11
2023-01-21T12:40:36.146Z,98732.38
2023-01-21T12:43:54.567Z,98738.75
2023-01-21T12:47:16.027Z,98741.86
2023-01-21T12:50:35.405Z,98752.05
2023-01-21T12:53:53.683Z,98760.95
2023-01-21T12:57:11.435Z,98765.50
2023-01-21T13:00:30.654Z,98769.22
2023-01-21T13:03:52.894Z,98779.40
2023-01-21T13:07:12.184Z,98785.74
2023-01-21T13:10:30.689Z,98782.11
2023-01-21T13:13:48.564Z,98793.25
2023-01-21T13:17:05.141Z,98805.81
2023-01-21T13:20:26.684Z,98801.58
2023-01-21T13:23:44.535Z,98808.99
2023-01-21T13:27:05.250Z,98811.16
2023-01-21T13:30:27.528Z,98817.80
2023-01-21T13:33:48.395Z,98824.95
2023-01-21T13:37:13.411Z,98812.52
2023-01-21T13:40:38.742Z,98826.21
2023-01-21T13:44:11.098Z,98830.88
2023-01-21T13:47:34.613Z,98831.13
2023-01-21T13:51:19.076Z,98831.66
2023-01-21T13:55:08.594Z,98831.66
2023-01-21T13:58:26.684Z,98829.95
2023-01-21T14:01:45.178Z,98838.05
2023-01-21T14:05:02.312Z,98830.30
2023-01-21T14:08:18.603Z,98837.57
2023-01-21T14:11:34.322Z,98851.05
2023-01-21T14:15:21.444Z,98853.27
2023-01-21T14:19:07.056Z,98865.22
2023-01-21T14:22:44.512Z,98856.98
2023-01-21T14:26:26.744Z,98870.20
2023-01-21T14:29:46.589Z,98871.15
2023-01-21T14:33:02.883Z,98878.38
2023-01-21T14:36:20.529Z,98890.37
2023-01-21T14:39:51.542Z,98896.55
2023-01-21T14:43:04.331Z,98899.83
2023-01-21T14:46:33.681Z,98905.16
2023-01-21T14:49:51.529Z,98912.14
2023-01-21T14:53:04.308Z,98923.08
2023-01-21T14:56:29.137Z,98936.86
2023-01-21T14:59:46.266Z,98942.86
2023-01-21T15:03:11.482Z,98944.85
2023-01-21T15:06:28.064Z,98955.55
2023-01-21T15:09:46.021Z,98963.65
2023-01-21T15:13:02.442Z,98964.41
2023-01-21T15:16:24.037Z,98969.64
2023-01-21T15:19:39.009Z,98962.39
2023-01-21T15:22:51.112Z,98975.02
2023-01-21T15:26:37.263Z,98991.56
2023-01-21T15:29:51.247Z,98991.47
2023-01-21T15:33:03.956Z,98994.26
2023-01-21T15:36:31.931Z,99002.88
2023-01-21T15:39:44.879Z,99015.09
2023-01-21T15:43:04.859Z,99021.95
2023-01-21T15:46:29.286Z,99020.92
2023-01-21T15:49:56.929Z,99019.92
2023-01-21T15:53:36.671Z,99019.78
2023-01-21T15:57:23.491Z,99026.69
2023-01-21T16:00:43.942Z,99027.45
2023-01-21T16:04:08.404Z,99026.69
2023-01-21T16:07:29.627Z,99034.40
2023-01-21T16:10:48.835Z,99040.23
2023-01-21T16:14:07.844Z,99046.23
2023-01-21T16:17:26.114Z,99045.31
2023-01-21T16:20:39.315Z,99051.00
2023-01-21T16:23:52.178Z,99056.41
2023-01-21T16:27:22.933Z,99054.38
2023-01-21T16:30:37.437Z,99052.70
2023-01-21T16:33:50.675Z,99052.70
2023-01-21T16:37:02.987Z,99055.38
2023-01-21T16:40:35.984Z,99068.25
2023-01-21T16:43:52.085Z,99076.09
2023-01-21T16:47:04.479Z,99070.69
2023-01-21T16:50:28.995Z,99070.55
2023-01-21T16:53:41.117Z,99078.45
2023-01-21T16:56:57.857Z,99075.31
2023-01-21T17:00:16.666Z,99079.61
2023-01-21T17:03:28.744Z,99078.75
2023-01-21T17:06:40.801Z,99078.62
2023-01-21T17:09:58.715Z,99084.84
2023-01-21T17:13:18.688Z,99089.00
2023-01-21T17:16:37.988Z,99087.84
2023-01-21T17:19:51.141Z,99099.38
2023-01-21T17:23:10.373Z,99102.23
2023-01-21T17:26:26.876Z,99112.45
2023-01-21T17:29:40.415Z,99111.32
2023-01-21T17:33:00.428Z,99119.30
2023-01-21T17:36:19.385Z,99137.70
2023-01-21T17:40:06.369Z,99142.84
2023-01-21T17:43:26.113Z,99141.85
2023-01-21T17:46:38.952Z,99148.71
2023-01-21T17:49:52.948Z,99154.08
2023-01-21T17:53:10.545Z,99155.78
2023-01-21T17:56:38.762Z,99160.16
2023-01-21T17:59:52.905Z,99160.72
2023-01-21T18:03:05.646Z,99170.33
2023-01-21T18:06:24.837Z,99178.25
2023-01-21T18:09:38.244Z,99186.88
2023-01-21T18:12:50.545Z,99183.32
2023-01-21T18:16:02.768Z,99184.55
2023-01-21T18:19:31.409Z,99191.55
2023-01-21T18:22:43.765Z,99191.33
2023-01-21T18:25:58.023Z,99199.95
2023-01-21T18:29:11.757Z,99206.17
2023-01-21T18:32:24.526Z,99205.39
2023-01-21T18:35:37.655Z,99208.78
2023-01-21T18:38:50.004Z,99216.71
2023-01-21T18:42:02.309Z,99222.23
2023-01-21T18:45:21.277Z,99224.85
2023-01-21T18:48:36.472Z,99228.16
2023-01-21T18:51:48.987Z,99223.92
2023-01-21T18:55:02.554Z,99235.31
2023-01-21T18:58:19.565Z,99232.70
2023-01-21T19:01:32.077Z,99230.09
2023-01-21T19:04:44.459Z,99239.61
2023-01-21T19:07:57.118Z,99246.68
2023-01-21T19:11:09.496Z,99245.20
2023-01-21T19:14:22.207Z,99249.95
2023-01-21T19:17:38.353Z,99248.97
2023-01-21T19:20:51.229Z,99258.48
2023-01-21T19:24:03.513Z,99270.50
2023-01-21T19:27:20.647Z,99264.37
2023-01-21T19:30:35.690Z,99275.61
2023-01-21T19:33:47.842Z,99280.84
2023-01-21T19:37:00.742Z,99274.67
2023-01-21T19:40:22.179Z,99288.69
2023-01-21T19:43:34.726Z,99291.50
2023-01-21T19:46:46.806Z,99298.64
2023-01-21T19:49:59.419Z,99299.42
2023-01-21T19:53:13.479Z,99306.48
2023-01-21T19:56:29.517Z,99314.26
2023-01-21T19:59:41.762Z,99305.71
2023-01-21T20:02:54.482Z,99313.40
2023-01-21T20:06:09.108Z,99316.25
2023-01-21T20:09:21.897Z,99319.77
2023-01-21T20:12:34.086Z,99331.98
2023-01-21T20:15:48.662Z,99332.84
2023-01-21T20:19:02.373Z,99326.13
2023-01-21T20:22:14.937Z,99339.20
2023-01-21T20:25:30.648Z,99345.28
2023-01-21T20:28:49.650Z,99345.20
2023-01-21T20:32:02.144Z,99341.66
2023-01-21T20:35:17.039Z,99345.28
2023-01-21T20:38:34.251Z,99346.11
2023-01-21T20:41:46.355Z,99352.98
2023-01-21T20:44:58.677Z,99364.41
2023-01-21T20:48:14.584Z,99352.27
2023-01-21T20:51:27.282Z,99364.48
2023-01-21T20:54:40.750Z,99369.79
2023-01-21T20:57:53.658Z,99376.66
2023-01-21T21:01:06.084Z,99379.31
2023-01-21T21:04:18.475Z,99386.38
2023-01-21T21:07:30.485Z,99374.36
2023-01-21T21:10:43.458Z,99374.16
2023-01-21T21:13:56.717Z,99383.49
2023-01-21T21:17:09.493Z,99384.55
2023-01-21T21:20:27.586Z,99382.94
2023-01-21T21:23:39.698Z,99384.50
2023-01-21T21:26:51.992Z,99394.11
2023-01-21T21:30:04.241Z,99397.77
2023-01-21T21:33:24.263Z,99397.69
2023-01-21T21:36:36.632Z,99403.52
2023-01-21T21:39:48.923Z,99391.56
2023-01-21T21:43:16.067Z,99406.39
2023-01-21T21:46:42.721Z,99408.08
2023-01-21T21:49:55.019Z,99406.51
2023-01-21T21:53:08.282Z,99413.45
2023-01-21T21:56:23.380Z,99414.23
2023-01-21T21:59:35.833Z,99410.95
2023-01-21T22:02:48.042Z,99417.83
2023-01-21T22:06:03.065Z,99411.63
2023-01-21T22:09:15.588Z,99416.92
2023-01-21T22:12:27.717Z,99419.73
2023-01-21T22:15:39.936Z,99427.42
2023-01-21T22:18:52.410Z,99430.83
2023-01-21T22:22:04.778Z,99427.38
2023-01-21T22:25:17.719Z,99429.22
2023-01-21T22:28:30.435Z,99436.20
2023-01-21T22:31:43.664Z,99429.22
2023-01-21T22:34:56.010Z,99437.09
2023-01-21T22:38:08.249Z,99443.38
2023-01-21T22:41:23.580Z,99439.00
2023-01-21T22:44:35.895Z,99439.78
2023-01-21T22:47:47.946Z,99444.30
2023-01-21T22:51:02.542Z,99440.83
2023-01-21T22:54:15.748Z,99445.20
2023-01-21T22:57:28.356Z,99455.66
2023-01-21T23:00:44.908Z,99448.60
2023-01-21T23:03:57.124Z,99444.48
2023-01-21T23:07:09.479Z,99444.48
2023-01-21T23:10:22.134Z,99441.09
2023-01-21T23:13:34.729Z,99440.19
2023-01-21T23:16:47.119Z,99443.63
2023-01-21T23:19:59.128Z,99440.98
2023-01-21T23:23:11.345Z,99449.61
2023-01-21T23:26:24.403Z,99449.86
2023-01-21T23:29:37.830Z,99448.03
2023-01-21T23:32:49.795Z,99446.47
2023-01-21T23:36:05.111Z,99450.69
2023-01-21T23:39:17.089Z,99455.02
2023-01-21T23:42:29.214Z,99455.80
2023-01-21T23:45:41.580Z,99468.09
2023-01-21T23:48:53.804Z,99469.13
2023-01-21T23:52:08.062Z,99476.97
2023-01-21T23:55:20.364Z,99476.90
2023-01-21T23:58:32.364Z,99482.20
